createdAt,value
2018-01-14T00:01:20.194Z,13.97
2018-01-14T00:03:47.745Z,14.80
2018-01-14T00:06:16.048Z,14.03
2018-01-14T00:08:44.332Z,14.57
2018-01-14T00:11:12.615Z,15.60
2018-01-14T00:13:40.994Z,14.90
2018-01-14T00:16:09.344Z,14.67
2018-01-14T00:18:37.483Z,16.00
2018-01-14T00:21:05.786Z,15.20
2018-01-14T00:23:33.345Z,13.93
2018-01-14T00:26:01.654Z,16.07
2018-01-14T00:28:29.273Z,14.63
2018-01-14T00:30:57.569Z,15.40
2018-01-14T00:33:25.194Z,16.13
2018-01-14T00:35:52.737Z,15.30
2018-01-14T00:38:21.545Z,15.10
2018-01-14T00:40:50.950Z,15.50
2018-01-14T00:43:19.628Z,16.00
2018-01-14T00:45:50.526Z,14.47
2018-01-14T00:48:20.638Z,14.43
2018-01-14T00:50:49.879Z,14.43
2018-01-14T00:53:19.310Z,16.20
2018-01-14T00:55:48.737Z,15.47
2018-01-14T00:58:16.944Z,14.10
2018-01-14T01:00:45.404Z,15.70
2018-01-14T01:03:15.315Z,13.67
2018-01-14T01:05:46.882Z,15.57
2018-01-14T01:08:15.963Z,14.53
2018-01-14T01:10:45.705Z,15.10
2018-01-14T01:13:19.372Z,14.60
2018-01-14T01:15:47.569Z,14.50
2018-01-14T01:18:15.823Z,13.67
2018-01-14T01:20:43.516Z,13.50
2018-01-14T01:23:12.161Z,13.53
2018-01-14T01:25:42.536Z,12.83
2018-01-14T01:28:13.075Z,14.13
2018-01-14T01:30:42.284Z,14.87
2018-01-14T01:33:10.094Z,14.73
2018-01-14T01:35:38.574Z,13.93
2018-01-14T01:38:06.572Z,14.53
2018-01-14T01:40:34.221Z,14.30
2018-01-14T01:43:01.830Z,14.17
2018-01-14T01:45:30.109Z,14.07
2018-01-14T01:47:58.493Z,13.80
2018-01-14T01:50:26.813Z,15.20
2018-01-14T01:52:54.304Z,13.40
2018-01-14T01:55:21.919Z,13.57
2018-01-14T01:57:49.498Z,12.70
2018-01-14T02:00:17.075Z,13.97
2018-01-14T02:02:45.389Z,13.90
2018-01-14T02:05:12.884Z,13.50
2018-01-14T02:07:40.469Z,14.57
2018-01-14T02:10:08.023Z,13.33
2018-01-14T02:12:36.416Z,13.90
2018-01-14T02:15:04.167Z,14.00
2018-01-14T02:17:31.748Z,13.10
2018-01-14T02:19:59.297Z,13.80
2018-01-14T02:22:26.863Z,12.20
2018-01-14T02:24:55.309Z,12.93
2018-01-14T02:27:22.984Z,13.20
2018-01-14T02:29:50.514Z,14.00
2018-01-14T02:32:18.231Z,13.37
2018-01-14T02:34:46.713Z,12.30
2018-01-14T02:37:14.271Z,13.07
2018-01-14T02:39:41.806Z,12.60
2018-01-14T02:42:10.130Z,13.07
2018-01-14T02:44:37.680Z,13.67
2018-01-14T02:47:05.292Z,13.40
2018-01-14T02:49:32.859Z,13.07
2018-01-14T02:52:00.435Z,13.40
2018-01-14T02:54:27.937Z,12.90
2018-01-14T02:56:56.242Z,13.20
2018-01-14T02:59:24.530Z,12.50
2018-01-14T03:01:52.913Z,12.10
2018-01-14T03:04:20.431Z,12.70
2018-01-14T03:06:47.961Z,12.57
2018-01-14T03:09:16.274Z,13.23
2018-01-14T03:11:43.825Z,11.20
2018-01-14T03:14:12.240Z,11.80
2018-01-14T03:16:39.854Z,11.80
2018-01-14T03:19:07.894Z,12.90
2018-01-14T03:21:35.521Z,12.83
2018-01-14T04:46:00.351Z,11.43
2018-01-14T04:48:27.878Z,11.80
2018-01-14T04:50:55.549Z,12.80
2018-01-14T04:53:23.992Z,12.20
2018-01-14T04:55:51.511Z,11.90
2018-01-14T04:58:20.220Z,12.27
2018-01-14T05:00:48.253Z,11.97
2018-01-14T05:03:16.883Z,12.20
2018-01-14T05:05:45.588Z,13.23
2018-01-14T05:08:13.540Z,12.07
2018-01-14T05:10:42.045Z,12.07
2018-01-14T05:13:11.028Z,11.43
2018-01-14T05:15:39.949Z,12.37
2018-01-14T05:18:09.243Z,11.47
2018-01-14T05:20:37.647Z,12.30
2018-01-14T05:23:06.357Z,11.17
2018-01-14T05:25:34.653Z,12.43
2018-01-14T05:28:02.297Z,13.10
2018-01-14T05:30:30.033Z,12.80
2018-01-14T05:32:57.549Z,13.57
2018-01-14T05:35:25.161Z,12.17
2018-01-14T05:37:53.445Z,13.07
2018-01-14T05:40:22.178Z,13.90
2018-01-14T05:42:49.783Z,13.73
2018-01-14T05:45:18.376Z,13.50
2018-01-14T05:47:46.076Z,12.35
2018-01-14T05:50:14.207Z,14.10
2018-01-14T05:52:41.973Z,12.57
2018-01-14T05:55:10.597Z,13.60
2018-01-14T05:57:38.499Z,13.53
2018-01-14T06:00:06.742Z,13.13
2018-01-14T06:02:34.470Z,12.87
2018-01-14T06:05:02.862Z,13.37
2018-01-14T06:07:30.499Z,14.03
2018-01-14T06:09:58.126Z,14.57
2018-01-14T06:12:25.632Z,13.70
2018-01-14T06:14:53.260Z,13.73
2018-01-14T06:17:21.569Z,13.87
2018-01-14T06:19:49.093Z,14.40
2018-01-14T06:22:16.632Z,13.90
2018-01-14T06:24:44.305Z,13.93
2018-01-14T06:27:11.894Z,13.90
2018-01-14T06:29:39.543Z,14.40
2018-01-14T06:32:07.103Z,14.07
2018-01-14T06:34:34.653Z,15.43
2018-01-14T06:37:02.199Z,13.83
2018-01-14T06:39:30.684Z,14.17
2018-01-14T06:41:58.199Z,15.53
2018-01-14T06:44:26.489Z,15.20
2018-01-14T06:46:54.036Z,14.02
2018-01-14T06:49:21.557Z,14.27
2018-01-14T06:51:49.067Z,14.93
2018-01-14T06:54:17.358Z,15.15
2018-01-14T06:56:45.637Z,14.18
2018-01-14T06:59:13.943Z,14.15
2018-01-14T07:01:41.455Z,15.35
2018-01-14T07:04:09.068Z,14.95
2018-01-14T07:06:36.718Z,15.43
2018-01-14T07:09:04.294Z,15.00
2018-01-14T07:11:31.789Z,15.63
2018-01-14T07:13:59.376Z,14.43
2018-01-14T07:16:27.669Z,15.23
2018-01-14T07:18:56.051Z,17.00
2018-01-14T07:21:23.749Z,14.67
2018-01-14T07:23:51.416Z,16.10
2018-01-14T07:26:19.745Z,15.93
2018-01-14T07:28:47.316Z,16.02
2018-01-14T07:31:14.944Z,14.13
2018-01-14T07:33:43.269Z,15.77
2018-01-14T07:36:10.860Z,15.60
2018-01-14T07:38:38.493Z,15.03
2018-01-14T07:41:06.050Z,16.33
2018-01-14T07:43:33.628Z,15.75
2018-01-14T07:46:02.143Z,15.83
2018-01-14T07:48:29.758Z,14.47
2018-01-14T07:50:57.416Z,15.38
2018-01-14T07:53:24.939Z,15.97
2018-01-14T07:55:52.544Z,16.08
2018-01-14T07:58:20.114Z,14.73
2018-01-14T08:00:48.842Z,15.20
2018-01-14T08:03:41.714Z,16.30
2018-01-14T08:06:14.946Z,14.25
2018-01-14T08:08:45.646Z,16.77
2018-01-14T08:11:16.429Z,15.30
2018-01-14T08:13:45.417Z,16.27
2018-01-14T08:16:17.603Z,15.43
2018-01-14T08:18:48.254Z,14.80
2018-01-14T08:23:54.196Z,15.80
2018-01-14T08:28:56.916Z,13.90
2018-01-14T08:34:05.628Z,14.93
2018-01-14T08:36:41.327Z,14.10
2018-01-14T08:39:13.168Z,12.90
2018-01-14T08:41:42.365Z,13.60
2018-01-14T08:44:11.947Z,14.33
2018-01-14T08:46:41.245Z,14.37
2018-01-14T08:49:11.524Z,16.00
2018-01-14T08:51:42.110Z,13.67
2018-01-14T08:54:11.482Z,14.40
2018-01-14T08:56:39.499Z,15.60
2018-01-14T08:59:08.980Z,14.07
2018-01-14T09:01:42.908Z,13.50
2018-01-14T09:04:11.620Z,13.67
2018-01-14T09:06:42.216Z,14.20
2018-01-14T09:09:09.788Z,14.13
2018-01-14T09:11:42.900Z,13.27
2018-01-14T09:14:15.723Z,13.48
2018-01-14T09:16:44.213Z,13.50
2018-01-14T09:19:19.849Z,12.37
2018-01-14T09:22:01.215Z,13.50
2018-01-14T09:24:31.034Z,14.40
2018-01-14T09:27:06.487Z,12.97
2018-01-14T09:29:36.963Z,13.20
2018-01-14T09:32:11.330Z,13.07
2018-01-14T09:34:48.017Z,12.60
2018-01-14T09:37:24.081Z,13.27
2018-01-14T09:39:52.339Z,12.60
2018-01-14T09:42:19.920Z,13.03
2018-01-14T09:44:47.424Z,12.87
2018-01-14T09:47:15.991Z,13.00
2018-01-14T09:49:44.657Z,12.17
2018-01-14T09:52:12.310Z,12.50
2018-01-14T09:54:40.624Z,12.60
2018-01-14T09:57:08.191Z,12.13
2018-01-14T09:59:36.512Z,11.60
2018-01-14T10:02:05.747Z,11.47
2018-01-14T10:04:34.900Z,11.00
2018-01-14T10:07:02.603Z,13.20
2018-01-14T10:09:30.163Z,12.50
2018-01-14T10:11:57.731Z,14.20
2018-01-14T10:14:25.291Z,11.13
2018-01-14T10:16:53.078Z,12.23
2018-01-14T10:19:20.653Z,13.47
2018-01-14T10:21:48.282Z,12.40
2018-01-14T10:24:16.583Z,11.17
2018-01-14T10:26:44.970Z,12.17
2018-01-14T10:29:13.282Z,12.10
2018-01-14T10:31:41.535Z,11.80
2018-01-14T10:34:10.690Z,10.60
2018-01-14T10:36:39.938Z,10.63
2018-01-14T10:39:10.290Z,10.83
2018-01-14T10:41:38.000Z,11.60
2018-01-14T10:44:15.895Z,10.77
2018-01-14T10:46:45.199Z,10.30
2018-01-14T10:49:14.411Z,9.93
2018-01-14T10:51:42.747Z,10.47
2018-01-14T10:54:11.425Z,10.50
2018-01-14T10:56:38.956Z,10.70
2018-01-14T10:59:06.596Z,11.33
2018-01-14T11:01:34.182Z,11.10
2018-01-14T11:04:01.709Z,9.50
2018-01-14T11:06:29.869Z,9.73
2018-01-14T11:08:58.186Z,10.33
2018-01-14T11:11:25.727Z,9.87
2018-01-14T11:13:54.946Z,11.10
2018-01-14T11:16:23.244Z,10.83
2018-01-14T11:18:50.758Z,10.43
2018-01-14T11:21:19.275Z,10.17
2018-01-14T11:23:46.902Z,11.40
2018-01-14T11:26:14.479Z,10.77
2018-01-14T11:28:42.049Z,9.73
2018-01-14T11:31:10.485Z,9.70
2018-01-14T11:33:38.010Z,10.80
2018-01-14T11:36:06.482Z,9.87
2018-01-14T11:38:34.170Z,10.93
2018-01-14T11:41:05.117Z,10.87
2018-01-14T11:43:35.874Z,11.73
2018-01-14T11:46:03.899Z,10.60
2018-01-14T11:48:31.465Z,11.67
2018-01-14T11:50:59.001Z,10.53
2018-01-14T11:53:28.731Z,11.20
2018-01-14T11:55:56.901Z,11.30
2018-01-14T11:58:25.245Z,10.60
2018-01-14T12:00:52.789Z,9.90
2018-01-14T12:03:20.686Z,11.57
2018-01-14T12:05:49.058Z,11.27
2018-01-14T12:08:18.372Z,10.33
2018-01-14T12:10:46.967Z,10.03
2018-01-14T12:13:14.517Z,11.97
2018-01-14T12:15:42.075Z,11.80
2018-01-14T12:18:09.714Z,10.90
2018-01-14T12:20:38.054Z,11.77
2018-01-14T12:23:05.738Z,10.67
2018-01-14T12:25:33.388Z,11.27
2018-01-14T12:28:00.893Z,11.73
2018-01-14T12:30:28.681Z,12.27
2018-01-14T12:33:08.787Z,11.23
2018-01-14T12:35:36.486Z,12.10
2018-01-14T12:38:03.990Z,12.47
2018-01-14T12:40:31.588Z,11.93
2018-01-14T12:42:59.901Z,11.20
2018-01-14T12:45:27.482Z,12.27
2018-01-14T12:47:55.006Z,12.23
2018-01-14T12:50:22.581Z,13.00
2018-01-14T12:52:50.875Z,12.53
2018-01-14T12:55:19.987Z,11.20
2018-01-14T12:57:48.303Z,11.23
2018-01-14T13:00:15.846Z,11.87
2018-01-14T13:02:46.264Z,12.10
2018-01-14T13:05:13.841Z,13.40
2018-01-14T13:07:41.420Z,12.27
2018-01-14T13:10:09.351Z,12.17
2018-01-14T13:12:36.914Z,11.30
2018-01-14T13:15:04.438Z,11.70
2018-01-14T13:17:32.049Z,12.80
2018-01-14T13:19:59.585Z,12.27
2018-01-14T13:22:27.380Z,12.30
2018-01-14T13:24:55.898Z,13.17
2018-01-14T13:27:23.448Z,12.47
2018-01-14T13:29:51.860Z,12.73
2018-01-14T13:32:19.367Z,13.33
2018-01-14T13:34:46.898Z,12.57
2018-01-14T13:37:14.412Z,13.07
2018-01-14T13:39:42.261Z,12.83
2018-01-14T13:42:16.329Z,11.77
2018-01-14T13:47:49.957Z,13.37
2018-01-14T13:50:17.655Z,12.80
2018-01-14T13:52:45.973Z,13.63
2018-01-14T13:55:13.592Z,13.40
2018-01-14T13:57:41.124Z,13.87
2018-01-14T14:00:08.654Z,14.23
2018-01-14T14:02:36.938Z,13.40
2018-01-14T14:05:04.592Z,13.60
2018-01-14T14:07:32.112Z,13.60
2018-01-14T14:10:00.433Z,12.63
2018-01-14T14:12:30.287Z,14.27
2018-01-14T14:14:58.839Z,14.53
2018-01-14T14:17:27.207Z,14.00
2018-01-14T14:19:55.517Z,13.20
2018-01-14T14:22:23.125Z,13.77
2018-01-14T14:24:50.700Z,13.40
2018-01-14T14:27:18.304Z,13.27
2018-01-14T14:29:46.625Z,12.63
2018-01-14T14:32:14.141Z,12.30
2018-01-14T14:34:41.805Z,13.83
2018-01-14T14:37:09.404Z,14.20
2018-01-14T14:39:37.054Z,13.50
2018-01-14T14:42:05.151Z,13.33
2018-01-14T14:44:32.763Z,13.00
2018-01-14T14:47:00.263Z,12.93
2018-01-14T14:49:27.918Z,13.00
2018-01-14T14:51:55.549Z,13.73
2018-01-14T14:54:23.126Z,12.87
2018-01-14T14:56:50.709Z,12.77
2018-01-14T14:59:19.136Z,13.20
2018-01-14T15:01:46.716Z,12.70
2018-01-14T15:04:14.442Z,13.70
2018-01-14T15:06:41.916Z,13.33
2018-01-14T15:09:10.371Z,12.90
2018-01-14T15:11:37.899Z,12.17
2018-01-14T15:14:05.677Z,13.83
2018-01-14T15:16:33.232Z,13.20
2018-01-14T15:19:00.997Z,13.07
2018-01-14T15:21:28.573Z,12.60
2018-01-14T15:23:56.938Z,13.53
2018-01-14T15:26:24.605Z,14.00
2018-01-14T15:28:52.138Z,14.00
2018-01-14T15:31:19.765Z,13.83
2018-01-14T15:33:47.360Z,17.63
2018-01-14T15:36:15.558Z,15.83
2018-01-14T15:38:43.100Z,16.53
2018-01-14T15:41:10.703Z,15.13
2018-01-14T15:43:38.226Z,19.50
2018-01-14T15:46:05.763Z,15.50
2018-01-14T15:48:33.325Z,17.67
2018-01-14T15:51:00.880Z,20.00
2018-01-14T15:53:29.243Z,28.83
2018-01-14T15:55:56.773Z,29.47
2018-01-14T15:58:24.429Z,15.77
2018-01-14T16:00:51.974Z,15.80
2018-01-14T16:03:20.306Z,14.97
2018-01-14T16:05:47.837Z,16.17
2018-01-14T16:08:16.174Z,14.80
2018-01-14T16:10:43.824Z,13.53
2018-01-14T16:13:11.370Z,15.30
2018-01-14T16:15:39.355Z,16.27
2018-01-14T16:18:07.687Z,16.90
2018-01-14T16:20:35.236Z,15.93
2018-01-14T16:23:02.767Z,15.50
2018-01-14T16:25:30.351Z,14.30
2018-01-14T16:27:58.724Z,16.20
2018-01-14T16:30:26.408Z,16.20
2018-01-14T16:32:53.911Z,14.73
2018-01-14T16:35:21.651Z,15.30
2018-01-14T16:37:49.986Z,15.23
2018-01-14T16:40:17.530Z,17.97
2018-01-14T16:42:45.828Z,16.10
2018-01-14T16:45:13.369Z,15.00
2018-01-14T16:47:40.900Z,15.33
2018-01-14T16:50:08.588Z,17.10
2018-01-14T16:52:36.527Z,19.93
2018-01-14T16:55:04.073Z,18.23
2018-01-14T16:57:32.370Z,15.93
2018-01-14T17:00:00.669Z,16.00
2018-01-14T17:02:28.352Z,16.20
2018-01-14T17:04:55.866Z,15.33
2018-01-14T17:07:23.411Z,16.47
2018-01-14T17:09:50.925Z,16.17
2018-01-14T17:12:18.477Z,17.83
2018-01-14T17:14:46.046Z,17.10
2018-01-14T17:17:13.692Z,17.00
2018-01-14T17:19:41.465Z,16.93
2018-01-14T17:22:09.072Z,15.87
2018-01-14T17:24:36.602Z,16.70
2018-01-14T17:27:04.217Z,14.93
2018-01-14T17:29:31.772Z,15.90
2018-01-14T17:31:59.436Z,17.60
2018-01-14T17:34:27.110Z,17.23
2018-01-14T17:36:54.740Z,19.10
2018-01-14T17:39:23.053Z,16.10
2018-01-14T17:41:50.736Z,18.42
2018-01-14T17:44:18.420Z,16.97
2018-01-14T17:46:45.974Z,16.57
2018-01-14T17:49:13.532Z,18.20
2018-01-14T17:51:41.915Z,16.50
2018-01-14T17:54:10.282Z,17.10
2018-01-14T17:56:37.888Z,18.10
2018-01-14T17:59:05.452Z,15.37
2018-01-14T18:01:33.750Z,15.30
2018-01-14T18:04:02.076Z,17.37
2018-01-14T18:06:29.638Z,16.60
2018-01-14T18:08:57.274Z,16.03
2018-01-14T18:11:25.596Z,18.20
2018-01-14T18:13:53.356Z,16.90
2018-01-14T18:16:20.908Z,16.90
2018-01-14T18:18:49.192Z,16.40
2018-01-14T18:21:17.531Z,16.90
2018-01-14T18:23:45.147Z,17.67
2018-01-14T18:26:12.737Z,17.77
2018-01-14T18:28:41.146Z,16.48
2018-01-14T18:31:08.772Z,17.17
2018-01-14T18:33:36.294Z,17.00
2018-01-14T18:36:03.844Z,15.77
2018-01-14T18:38:31.374Z,18.08
2018-01-14T18:40:58.950Z,17.03
2018-01-14T18:43:26.488Z,17.00
2018-01-14T18:46:04.825Z,17.43
2018-01-14T18:48:32.488Z,18.35
2018-01-14T18:51:00.092Z,16.48
2018-01-14T18:53:27.730Z,16.98
2018-01-14T18:55:55.333Z,17.35
2018-01-14T18:58:22.895Z,16.37
2018-01-14T19:00:51.291Z,15.48
2018-01-14T19:03:18.959Z,16.62
2018-01-14T19:05:46.620Z,17.87
2018-01-14T19:08:14.158Z,16.20
2018-01-14T19:10:41.760Z,17.33
2018-01-14T19:13:09.291Z,17.62
2018-01-14T19:15:37.017Z,16.80
2018-01-14T19:18:04.565Z,15.95
2018-01-14T19:20:32.110Z,15.57
2018-01-14T19:23:00.397Z,14.87
2018-01-14T19:25:29.444Z,15.38
2018-01-14T19:27:56.992Z,16.55
2018-01-14T19:30:24.652Z,15.90
2018-01-14T19:32:52.978Z,15.00
2018-01-14T19:35:20.619Z,17.02
2018-01-14T19:37:48.897Z,16.27
2018-01-14T19:40:17.921Z,16.85
2018-01-14T19:42:46.232Z,16.25
2018-01-14T19:45:13.934Z,16.12
2018-01-14T19:47:41.678Z,16.80
2018-01-14T19:50:09.444Z,17.00
2018-01-14T19:52:37.111Z,17.42
2018-01-14T19:55:04.815Z,16.00
2018-01-14T19:57:32.453Z,15.85
2018-01-14T20:00:00.748Z,14.25
2018-01-14T20:02:28.342Z,15.07
2018-01-14T20:04:55.984Z,16.55
2018-01-14T20:07:24.322Z,16.48
2018-01-14T20:09:51.944Z,17.00
2018-01-14T20:12:19.567Z,14.25
2018-01-14T20:14:47.266Z,17.23
2018-01-14T20:17:14.847Z,15.75
2018-01-14T20:19:43.249Z,16.33
2018-01-14T20:22:11.670Z,17.85
2018-01-14T20:24:39.244Z,16.98
2018-01-14T20:27:06.964Z,16.70
2018-01-14T20:29:34.591Z,15.52
2018-01-14T20:32:02.265Z,16.30
2018-01-14T20:34:29.915Z,16.60
2018-01-14T20:36:58.216Z,15.32
2018-01-14T20:39:25.995Z,17.05
2018-01-14T20:41:54.099Z,16.77
2018-01-14T20:44:27.389Z,16.17
2018-01-14T20:46:55.071Z,16.75
2018-01-14T20:49:22.742Z,16.40
2018-01-14T20:51:50.500Z,16.50
2018-01-14T20:54:18.221Z,16.83
2018-01-14T20:56:45.867Z,18.10
2018-01-14T20:59:13.429Z,16.35
2018-01-14T21:01:41.104Z,17.37
2018-01-14T21:04:09.427Z,18.05
2018-01-14T21:06:36.959Z,16.40
2018-01-14T21:09:04.555Z,17.05
2018-01-14T21:11:32.212Z,15.98
2018-01-14T21:13:59.802Z,16.87
2018-01-14T21:16:27.356Z,17.80
2018-01-14T21:18:55.034Z,18.90
2018-01-14T21:21:22.632Z,17.55
2018-01-14T21:23:50.260Z,16.20
2018-01-14T21:26:18.568Z,18.75
2018-01-14T21:28:46.374Z,19.23
2018-01-14T21:31:14.806Z,18.07
2018-01-14T21:33:42.520Z,18.17
2018-01-14T21:36:11.012Z,17.50
2018-01-14T21:38:38.884Z,16.10
2018-01-14T21:41:06.431Z,16.90
2018-01-14T21:43:34.831Z,15.70
2018-01-14T21:46:03.109Z,17.17
2018-01-14T21:48:31.643Z,17.10
2018-01-14T21:50:59.346Z,16.80
2018-01-14T21:53:26.946Z,17.90
2018-01-14T21:55:55.276Z,17.50
2018-01-14T21:58:22.889Z,18.30
2018-01-14T22:00:50.631Z,17.40
2018-01-14T22:03:18.306Z,18.33
2018-01-14T22:05:45.835Z,17.20
2018-01-14T22:08:14.272Z,19.15
2018-01-14T22:10:41.839Z,17.98
2018-01-14T22:13:09.437Z,16.70
2018-01-14T22:15:37.032Z,17.20
2018-01-14T22:18:05.369Z,16.85
2018-01-14T22:20:33.166Z,17.75
2018-01-14T22:23:00.724Z,18.60
2018-01-14T22:25:28.338Z,17.48
2018-01-14T22:27:55.886Z,16.50
2018-01-14T22:30:23.511Z,19.15
2018-01-14T22:32:51.194Z,18.30
2018-01-14T22:35:18.767Z,18.58
2018-01-14T22:37:46.362Z,17.52
2018-01-14T22:40:13.899Z,17.10
2018-01-14T22:42:41.463Z,18.50
2018-01-14T22:45:09.361Z,17.83
2018-01-14T22:47:37.009Z,17.40
2018-01-14T22:50:04.707Z,17.25
2018-01-14T22:52:32.233Z,16.80
2018-01-14T22:54:59.773Z,18.58
2018-01-14T22:57:28.115Z,18.37
2018-01-14T22:59:55.678Z,18.05
2018-01-14T23:02:23.249Z,17.17
2018-01-14T23:04:50.802Z,18.87
2018-01-14T23:07:18.343Z,19.15
2018-01-14T23:09:46.723Z,18.27
2018-01-14T23:12:15.145Z,17.98
2018-01-14T23:17:41.509Z,19.90
2018-01-14T23:20:09.801Z,18.73
2018-01-14T23:22:37.423Z,18.90
2018-01-14T23:25:04.945Z,19.80
2018-01-14T23:27:32.483Z,19.10
2018-01-14T23:30:00.031Z,20.05
2018-01-14T23:32:28.522Z,18.10
2018-01-14T23:34:56.042Z,18.40
2018-01-14T23:37:24.350Z,20.23
2018-01-14T23:39:52.028Z,18.60
2018-01-14T23:42:19.563Z,19.43
2018-01-14T23:44:47.836Z,21.20
2018-01-14T23:47:15.366Z,19.52
2018-01-14T23:49:42.900Z,19.50
2018-01-14T23:52:11.215Z,20.00
2018-01-14T23:54:38.740Z,19.23
2018-01-14T23:57:06.282Z,21.13
2018-01-14T23:59:33.801Z,19.10
